Photometre #75[NE_1.6] Paris AOT

File : 20220826_75.hum

26/08/2022,05:54:05,TEMP=19.7,BA=5.68,STAT.A=4.5,ExtBa=13.86
26/08/2022,05:57:58,TEMP=19.9,BA=5.68,STAT.A=4.5,ExtBa=13.86
26/08/2022,06:02:31,TEMP=19.9,BA=5.64,STAT.A=4.5,ExtBa=13.87
26/08/2022,06:07:54,TEMP=19.9,BA=5.64,STAT.A=4.5,ExtBa=13.88
26/08/2022,06:14:21,TEMP=19.9,BA=5.68,STAT.A=4.5,ExtBa=13.88
26/08/2022,06:22:18,TEMP=19.7,BA=5.68,STAT.A=4.5,ExtBa=13.88
26/08/2022,06:32:15,TEMP=19.6,BA=5.68,STAT.B=4.5,ExtBa=13.88
26/08/2022,06:37:00,TEMP=19.8,BA=5.68,STAT.A=4.5,ExtBa=13.87
26/08/2022,06:42:17,TEMP=19.8,BA=5.68,STAT.A=4.5,ExtBa=13.87
26/08/2022,06:48:14,TEMP=19.8,BA=5.68,STAT.A=4.5,ExtBa=13.88
26/08/2022,06:54:57,TEMP=19.9,BA=5.64,STAT.A=4.5,ExtBa=13.87
26/08/2022,07:02:39,TEMP=20.3,BA=5.68,STAT.C=4.5,ExtBa=13.88
26/08/2022,07:13:46,TEMP=21.2,BA=5.36,STAT.A=4.5,ExtBa=12.90
26/08/2022,07:21:58,TEMP=21.1,BA=5.68,STAT.A=5.0,ExtBa=13.26
26/08/2022,07:34:23,TEMP=21.4,BA=5.68,STAT.A=5.0,ExtBa=13.66
26/08/2022,07:49:29,TEMP=21.6,BA=5.68,STAT.A=5.0,ExtBa=13.88
26/08/2022,08:08:22,TEMP=22.1,BA=5.68,STAT.B=5.0,ExtBa=13.90
26/08/2022,08:48:33,TEMP=24.8,BA=5.68,STAT.B=5.0,ExtBa=13.89
26/08/2022,08:57:05,TEMP=25.0,BA=5.36,STAT.F,ExtBa=13.05
26/08/2022,09:08:07,TEMP=24.0,BA=5.68,STAT.D=5.0,ExtBa=13.53
26/08/2022,09:23:07,TEMP=25.2,BA=5.68,STAT.D=5.0,ExtBa=13.77
26/08/2022,09:38:07,TEMP=24.9,BA=5.68,STAT.D=5.0,ExtBa=13.86
26/08/2022,09:53:09,TEMP=24.5,BA=5.68,STAT.F,ExtBa=13.85
26/08/2022,10:08:07,TEMP=25.2,BA=5.44,STAT.D=5.0,ExtBa=13.84
26/08/2022,10:23:07,TEMP=25.5,BA=5.68,STAT.D=5.0,ExtBa=13.85
26/08/2022,10:38:08,TEMP=27.1,BA=5.68,STAT.D=5.0,ExtBa=13.84
26/08/2022,10:53:09,TEMP=26.8,BA=5.68,STAT.F,ExtBa=13.82
26/08/2022,11:08:08,TEMP=26.8,BA=5.68,STAT.D=5.5,ExtBa=13.82
26/08/2022,11:23:08,TEMP=27.9,BA=5.68,STAT.D=5.0,ExtBa=13.82
26/08/2022,11:38:08,TEMP=28.8,BA=5.68,STAT.D=5.5,ExtBa=13.81
26/08/2022,11:53:09,TEMP=28.8,BA=5.68,STAT.F,ExtBa=13.80
26/08/2022,12:08:08,TEMP=30.7,BA=5.64,STAT.D=5.5,ExtBa=13.65
26/08/2022,12:23:08,TEMP=30.6,BA=5.64,STAT.D=5.5,ExtBa=13.78
26/08/2022,12:38:08,TEMP=30.6,BA=5.64,STAT.D=5.5,ExtBa=13.77
26/08/2022,12:53:09,TEMP=29.9,BA=5.64,STAT.F,ExtBa=13.77
26/08/2022,13:08:08,TEMP=28.9,BA=5.64,STAT.D=5.5,ExtBa=13.76
26/08/2022,13:23:07,TEMP=30.2,BA=5.64,STAT.D=5.5,ExtBa=13.76
26/08/2022,13:38:07,TEMP=31.1,BA=5.64,STAT.D=5.5,ExtBa=13.75
26/08/2022,13:53:09,TEMP=30.6,BA=5.64,STAT.F,ExtBa=13.73
26/08/2022,14:08:07,TEMP=30.7,BA=5.36,STAT.D=5.5,ExtBa=13.25
26/08/2022,14:23:07,TEMP=30.3,BA=5.60,STAT.D=5.5,ExtBa=13.66
26/08/2022,14:38:07,TEMP=29.5,BA=5.60,STAT.D=5.5,ExtBa=13.74
26/08/2022,14:53:08,TEMP=28.5,BA=5.60,STAT.F,ExtBa=13.74
26/08/2022,15:03:19,TEMP=29.0,BA=5.32,STAT.B=5.0,ExtBa=13.02
26/08/2022,15:37:54,TEMP=28.0,BA=5.64,STAT.B=5.5,ExtBa=13.75
26/08/2022,15:56:47,TEMP=28.3,BA=5.64,STAT.A=5.5,ExtBa=13.75
26/08/2022,16:11:53,TEMP=29.0,BA=5.68,STAT.A=5.5,ExtBa=13.75
26/08/2022,16:24:18,TEMP=28.8,BA=5.68,STAT.A=5.5,ExtBa=13.74
26/08/2022,16:34:43,TEMP=28.6,BA=5.68,STAT.A=5.5,ExtBa=13.75
26/08/2022,16:43:37,TEMP=28.5,BA=5.68,STAT.C=5.5,ExtBa=13.74
26/08/2022,16:54:10,TEMP=28.8,BA=5.32,STAT.A=5.0,ExtBa=12.93
26/08/2022,16:58:02,TEMP=28.3,BA=5.32,STAT.A=5.5,ExtBa=13.10
26/08/2022,17:03:59,TEMP=27.7,BA=5.36,STAT.A=5.5,ExtBa=13.32
26/08/2022,17:09:15,TEMP=27.4,BA=5.36,STAT.A=5.5,ExtBa=13.22
26/08/2022,17:14:00,TEMP=27.3,BA=5.36,STAT.B=5.5,ExtBa=13.31
26/08/2022,17:23:57,TEMP=27.6,BA=5.32,STAT.A=5.5,ExtBa=12.97
26/08/2022,17:31:53,TEMP=27.4,BA=5.64,STAT.A=5.5,ExtBa=13.28
26/08/2022,17:38:20,TEMP=27.1,BA=5.64,STAT.A=5.5,ExtBa=13.43
26/08/2022,17:43:43,TEMP=26.9,BA=5.52,STAT.A=5.5,ExtBa=13.49
26/08/2022,17:48:16,TEMP=26.8,BA=5.52,STAT.A=5.5,ExtBa=13.53
26/08/2022,17:52:09,TEMP=26.7,BA=5.56,STAT.A=5.0,ExtBa=13.54